sensor_id;sensor_type;location;lat;lon;timestamp;P1;durP1;ratioP1;P2;durP2;ratioP2
4986;SDS011;12674;51.500;7.552;2022-10-16T00:01:19;6.37;;;2.03;;
4986;SDS011;12674;51.500;7.552;2022-10-16T00:03:23;8.00;;;3.00;;
4986;SDS011;12674;51.500;7.552;2022-10-16T00:05:30;5.95;;;1.90;;
4986;SDS011;12674;51.500;7.552;2022-10-16T00:07:36;4.40;;;2.50;;
4986;SDS011;12674;51.500;7.552;2022-10-16T00:09:41;6.50;;;2.38;;
4986;SDS011;12674;51.500;7.552;2022-10-16T00:11:43;4.00;;;2.03;;
4986;SDS011;12674;51.500;7.552;2022-10-16T00:13:49;10.83;;;2.50;;
4986;SDS011;12674;51.500;7.552;2022-10-16T00:15:54;1.80;;;1.70;;
4986;SDS011;12674;51.500;7.552;2022-10-16T00:17:58;6.25;;;2.13;;
4986;SDS011;12674;51.500;7.552;2022-10-16T00:20:02;3.60;;;1.63;;
4986;SDS011;12674;51.500;7.552;2022-10-16T00:22:05;2.33;;;2.00;;
4986;SDS011;12674;51.500;7.552;2022-10-16T00:24:08;3.97;;;2.20;;
4986;SDS011;12674;51.500;7.552;2022-10-16T00:26:14;10.23;;;2.15;;
4986;SDS011;12674;51.500;7.552;2022-10-16T00:28:17;5.20;;;2.10;;
4986;SDS011;12674;51.500;7.552;2022-10-16T00:30:20;4.13;;;1.50;;
4986;SDS011;12674;51.500;7.552;2022-10-16T00:32:24;5.40;;;2.10;;
4986;SDS011;12674;51.500;7.552;2022-10-16T00:34:28;2.67;;;1.70;;
4986;SDS011;12674;51.500;7.552;2022-10-16T00:36:31;3.67;;;1.83;;
4986;SDS011;12674;51.500;7.552;2022-10-16T00:38:34;9.10;;;1.60;;
4986;SDS011;12674;51.500;7.552;2022-10-16T00:40:37;3.03;;;1.47;;
4986;SDS011;12674;51.500;7.552;2022-10-16T00:42:41;7.13;;;2.17;;
4986;SDS011;12674;51.500;7.552;2022-10-16T00:44:46;3.27;;;1.60;;
4986;SDS011;12674;51.500;7.552;2022-10-16T00:46:51;4.37;;;2.07;;
4986;SDS011;12674;51.500;7.552;2022-10-16T00:48:55;7.37;;;1.80;;
4986;SDS011;12674;51.500;7.552;2022-10-16T00:51:00;4.20;;;1.80;;
4986;SDS011;12674;51.500;7.552;2022-10-16T00:53:03;4.80;;;1.30;;
4986;SDS011;12674;51.500;7.552;2022-10-16T00:55:06;5.13;;;1.77;;
4986;SDS011;12674;51.500;7.552;2022-10-16T00:57:09;4.60;;;1.80;;
4986;SDS011;12674;51.500;7.552;2022-10-16T00:59:15;6.80;;;1.97;;
4986;SDS011;12674;51.500;7.552;2022-10-16T01:01:19;6.07;;;1.83;;
4986;SDS011;12674;51.500;7.552;2022-10-16T01:03:23;7.90;;;1.90;;
4986;SDS011;12674;51.500;7.552;2022-10-16T01:05:30;3.30;;;1.83;;
4986;SDS011;12674;51.500;7.552;2022-10-16T01:07:40;8.87;;;1.97;;
4986;SDS011;12674;51.500;7.552;2022-10-16T01:09:55;4.10;;;2.00;;
4986;SDS011;12674;51.500;7.552;2022-10-16T01:12:05;2.03;;;1.40;;
4986;SDS011;12674;51.500;7.552;2022-10-16T01:14:12;7.00;;;1.90;;
4986;SDS011;12674;51.500;7.552;2022-10-16T01:16:22;8.93;;;1.55;;
4986;SDS011;12674;51.500;7.552;2022-10-16T01:18:30;2.83;;;1.50;;
4986;SDS011;12674;51.500;7.552;2022-10-16T01:20:37;4.93;;;1.98;;
4986;SDS011;12674;51.500;7.552;2022-10-16T01:22:44;4.20;;;1.80;;
4986;SDS011;12674;51.500;7.552;2022-10-16T01:24:53;9.53;;;1.67;;
4986;SDS011;12674;51.500;7.552;2022-10-16T01:27:04;2.53;;;1.40;;
4986;SDS011;12674;51.500;7.552;2022-10-16T01:29:11;1.40;;;1.17;;
4986;SDS011;12674;51.500;7.552;2022-10-16T01:31:17;6.43;;;1.80;;
4986;SDS011;12674;51.500;7.552;2022-10-16T01:33:22;7.53;;;1.08;;
4986;SDS011;12674;51.500;7.552;2022-10-16T01:35:29;2.40;;;1.37;;
4986;SDS011;12674;51.500;7.552;2022-10-16T01:37:35;3.83;;;1.53;;
4986;SDS011;12674;51.500;7.552;2022-10-16T01:39:41;2.13;;;1.20;;
4986;SDS011;12674;51.500;7.552;2022-10-16T01:41:46;5.20;;;1.40;;
4986;SDS011;12674;51.500;7.552;2022-10-16T01:43:56;2.93;;;1.47;;
4986;SDS011;12674;51.500;7.552;2022-10-16T01:46:02;3.87;;;1.40;;
4986;SDS011;12674;51.500;7.552;2022-10-16T01:48:05;2.75;;;1.50;;
4986;SDS011;12674;51.500;7.552;2022-10-16T01:50:11;3.97;;;1.40;;
4986;SDS011;12674;51.500;7.552;2022-10-16T01:52:16;1.87;;;1.43;;
4986;SDS011;12674;51.500;7.552;2022-10-16T01:54:21;1.70;;;1.20;;
4986;SDS011;12674;51.500;7.552;2022-10-16T01:56:26;7.65;;;1.20;;
4986;SDS011;12674;51.500;7.552;2022-10-16T01:58:30;7.57;;;1.20;;
4986;SDS011;12674;51.500;7.552;2022-10-16T02:00:38;7.93;;;1.37;;
4986;SDS011;12674;51.500;7.552;2022-10-16T02:02:44;2.35;;;1.45;;
4986;SDS011;12674;51.500;7.552;2022-10-16T02:04:53;1.55;;;1.17;;
4986;SDS011;12674;51.500;7.552;2022-10-16T02:06:58;2.40;;;1.20;;
4986;SDS011;12674;51.500;7.552;2022-10-16T02:09:02;3.93;;;1.10;;
4986;SDS011;12674;51.500;7.552;2022-10-16T02:11:05;7.10;;;1.70;;
4986;SDS011;12674;51.500;7.552;2022-10-16T02:13:09;2.00;;;1.20;;
4986;SDS011;12674;51.500;7.552;2022-10-16T02:15:14;2.63;;;1.40;;
4986;SDS011;12674;51.500;7.552;2022-10-16T02:17:18;4.90;;;1.60;;
4986;SDS011;12674;51.500;7.552;2022-10-16T02:19:22;1.67;;;1.35;;
4986;SDS011;12674;51.500;7.552;2022-10-16T02:21:26;2.00;;;1.50;;
4986;SDS011;12674;51.500;7.552;2022-10-16T02:23:34;2.93;;;1.60;;
4986;SDS011;12674;51.500;7.552;2022-10-16T02:25:40;2.70;;;1.80;;
4986;SDS011;12674;51.500;7.552;2022-10-16T02:27:45;2.30;;;1.50;;
4986;SDS011;12674;51.500;7.552;2022-10-16T02:29:52;2.97;;;1.40;;
4986;SDS011;12674;51.500;7.552;2022-10-16T02:32:00;3.13;;;1.87;;
4986;SDS011;12674;51.500;7.552;2022-10-16T02:34:06;2.73;;;1.57;;
4986;SDS011;12674;51.500;7.552;2022-10-16T02:36:12;3.77;;;1.53;;
4986;SDS011;12674;51.500;7.552;2022-10-16T02:38:15;2.80;;;1.50;;
4986;SDS011;12674;51.500;7.552;2022-10-16T02:40:19;5.03;;;1.53;;
4986;SDS011;12674;51.500;7.552;2022-10-16T02:42:29;4.27;;;1.60;;
4986;SDS011;12674;51.500;7.552;2022-10-16T02:44:35;2.10;;;1.00;;
4986;SDS011;12674;51.500;7.552;2022-10-16T02:46:38;5.33;;;1.60;;
4986;SDS011;12674;51.500;7.552;2022-10-16T02:48:41;2.17;;;1.47;;
4986;SDS011;12674;51.500;7.552;2022-10-16T02:50:45;4.43;;;1.60;;
4986;SDS011;12674;51.500;7.552;2022-10-16T02:52:48;1.17;;;1.10;;
4986;SDS011;12674;51.500;7.552;2022-10-16T02:54:51;5.20;;;1.13;;
4986;SDS011;12674;51.500;7.552;2022-10-16T02:56:55;8.30;;;1.70;;
4986;SDS011;12674;51.500;7.552;2022-10-16T02:58:58;2.10;;;0.90;;
4986;SDS011;12674;51.500;7.552;2022-10-16T03:01:01;2.37;;;1.23;;
4986;SDS011;12674;51.500;7.552;2022-10-16T03:03:04;1.20;;;1.00;;
4986;SDS011;12674;51.500;7.552;2022-10-16T03:05:08;4.13;;;1.60;;
4986;SDS011;12674;51.500;7.552;2022-10-16T03:07:13;7.57;;;1.33;;
4986;SDS011;12674;51.500;7.552;2022-10-16T03:09:17;6.13;;;1.40;;
4986;SDS011;12674;51.500;7.552;2022-10-16T03:11:20;7.63;;;1.60;;
4986;SDS011;12674;51.500;7.552;2022-10-16T03:13:23;3.10;;;1.57;;
4986;SDS011;12674;51.500;7.552;2022-10-16T03:15:25;6.10;;;1.30;;
4986;SDS011;12674;51.500;7.552;2022-10-16T03:17:29;1.70;;;1.07;;
4986;SDS011;12674;51.500;7.552;2022-10-16T03:19:32;3.53;;;1.23;;
4986;SDS011;12674;51.500;7.552;2022-10-16T03:21:36;2.70;;;1.30;;
4986;SDS011;12674;51.500;7.552;2022-10-16T03:23:40;2.80;;;1.20;;
4986;SDS011;12674;51.500;7.552;2022-10-16T03:25:43;2.20;;;0.90;;
4986;SDS011;12674;51.500;7.552;2022-10-16T03:27:48;2.97;;;2.10;;
4986;SDS011;12674;51.500;7.552;2022-10-16T03:29:51;2.40;;;1.27;;
4986;SDS011;12674;51.500;7.552;2022-10-16T03:31:54;4.90;;;1.33;;
4986;SDS011;12674;51.500;7.552;2022-10-16T03:33:57;5.90;;;1.60;;
4986;SDS011;12674;51.500;7.552;2022-10-16T03:36:00;2.20;;;1.10;;
4986;SDS011;12674;51.500;7.552;2022-10-16T03:38:03;1.43;;;1.20;;
4986;SDS011;12674;51.500;7.552;2022-10-16T03:40:08;4.40;;;1.53;;
4986;SDS011;12674;51.500;7.552;2022-10-16T03:42:11;2.00;;;1.10;;
4986;SDS011;12674;51.500;7.552;2022-10-16T03:44:14;2.50;;;1.30;;
4986;SDS011;12674;51.500;7.552;2022-10-16T03:46:17;3.63;;;1.20;;
4986;SDS011;12674;51.500;7.552;2022-10-16T03:48:20;3.27;;;1.47;;
4986;SDS011;12674;51.500;7.552;2022-10-16T03:50:23;2.83;;;1.23;;
4986;SDS011;12674;51.500;7.552;2022-10-16T03:52:26;5.50;;;1.17;;
4986;SDS011;12674;51.500;7.552;2022-10-16T03:54:29;2.30;;;1.20;;
4986;SDS011;12674;51.500;7.552;2022-10-16T03:56:33;6.53;;;1.10;;
4986;SDS011;12674;51.500;7.552;2022-10-16T03:58:37;1.70;;;1.20;;
4986;SDS011;12674;51.500;7.552;2022-10-16T04:00:40;6.43;;;1.10;;
4986;SDS011;12674;51.500;7.552;2022-10-16T04:02:45;1.10;;;1.00;;
4986;SDS011;12674;51.500;7.552;2022-10-16T04:04:49;1.57;;;1.17;;
4986;SDS011;12674;51.500;7.552;2022-10-16T04:06:52;8.83;;;1.30;;
4986;SDS011;12674;51.500;7.552;2022-10-16T04:08:55;5.93;;;1.10;;
4986;SDS011;12674;51.500;7.552;2022-10-16T04:10:58;2.20;;;1.00;;
4986;SDS011;12674;51.500;7.552;2022-10-16T04:13:03;3.83;;;0.90;;
4986;SDS011;12674;51.500;7.552;2022-10-16T04:15:07;2.60;;;1.10;;
4986;SDS011;12674;51.500;7.552;2022-10-16T04:17:11;1.83;;;1.40;;
4986;SDS011;12674;51.500;7.552;2022-10-16T04:19:15;4.40;;;1.20;;
4986;SDS011;12674;51.500;7.552;2022-10-16T04:21:18;1.40;;;0.90;;
4986;SDS011;12674;51.500;7.552;2022-10-16T04:23:21;6.20;;;1.07;;
4986;SDS011;12674;51.500;7.552;2022-10-16T04:25:25;7.80;;;1.07;;
4986;SDS011;12674;51.500;7.552;2022-10-16T04:27:27;2.50;;;1.10;;
4986;SDS011;12674;51.500;7.552;2022-10-16T04:29:33;3.20;;;0.90;;
4986;SDS011;12674;51.500;7.552;2022-10-16T04:31:36;1.43;;;1.10;;
4986;SDS011;12674;51.500;7.552;2022-10-16T04:33:41;6.00;;;1.30;;
4986;SDS011;12674;51.500;7.552;2022-10-16T04:35:44;4.33;;;1.10;;
4986;SDS011;12674;51.500;7.552;2022-10-16T04:37:48;5.37;;;1.30;;
4986;SDS011;12674;51.500;7.552;2022-10-16T04:39:51;1.33;;;1.00;;
4986;SDS011;12674;51.500;7.552;2022-10-16T04:41:55;2.03;;;1.07;;
4986;SDS011;12674;51.500;7.552;2022-10-16T04:43:57;1.30;;;1.20;;
4986;SDS011;12674;51.500;7.552;2022-10-16T04:46:02;2.13;;;0.93;;
4986;SDS011;12674;51.500;7.552;2022-10-16T04:48:06;2.93;;;1.20;;
4986;SDS011;12674;51.500;7.552;2022-10-16T04:50:08;3.60;;;1.00;;
4986;SDS011;12674;51.500;7.552;2022-10-16T04:52:12;0.80;;;0.80;;
4986;SDS011;12674;51.500;7.552;2022-10-16T04:54:15;1.77;;;1.00;;
4986;SDS011;12674;51.500;7.552;2022-10-16T04:56:18;1.90;;;0.90;;
4986;SDS011;12674;51.500;7.552;2022-10-16T04:58:22;1.33;;;0.70;;
4986;SDS011;12674;51.500;7.552;2022-10-16T05:00:25;2.03;;;1.20;;
4986;SDS011;12674;51.500;7.552;2022-10-16T05:02:29;1.23;;;1.00;;
4986;SDS011;12674;51.500;7.552;2022-10-16T05:04:32;0.80;;;0.80;;
4986;SDS011;12674;51.500;7.552;2022-10-16T05:06:35;1.50;;;0.70;;
4986;SDS011;12674;51.500;7.552;2022-10-16T05:08:38;2.70;;;1.10;;
4986;SDS011;12674;51.500;7.552;2022-10-16T05:10:41;2.53;;;1.00;;
4986;SDS011;12674;51.500;7.552;2022-10-16T05:12:44;1.63;;;0.80;;
4986;SDS011;12674;51.500;7.552;2022-10-16T05:14:47;4.43;;;1.00;;
4986;SDS011;12674;51.500;7.552;2022-10-16T05:16:50;1.53;;;0.97;;
4986;SDS011;12674;51.500;7.552;2022-10-16T05:18:54;1.10;;;1.00;;
4986;SDS011;12674;51.500;7.552;2022-10-16T05:21:17;1.07;;;0.77;;
4986;SDS011;12674;51.500;7.552;2022-10-16T05:23:20;1.47;;;0.80;;
4986;SDS011;12674;51.500;7.552;2022-10-16T05:25:23;1.63;;;0.70;;
4986;SDS011;12674;51.500;7.552;2022-10-16T05:27:26;1.70;;;1.00;;
4986;SDS011;12674;51.500;7.552;2022-10-16T05:29:30;4.63;;;0.83;;
4986;SDS011;12674;51.500;7.552;2022-10-16T05:31:33;0.93;;;0.90;;
4986;SDS011;12674;51.500;7.552;2022-10-16T05:33:36;2.10;;;1.00;;
4986;SDS011;12674;51.500;7.552;2022-10-16T05:35:41;6.73;;;1.10;;
4986;SDS011;12674;51.500;7.552;2022-10-16T05:37:45;0.70;;;0.70;;
4986;SDS011;12674;51.500;7.552;2022-10-16T05:39:49;1.27;;;0.87;;
4986;SDS011;12674;51.500;7.552;2022-10-16T05:41:52;4.23;;;1.07;;
4986;SDS011;12674;51.500;7.552;2022-10-16T05:43:54;1.20;;;0.70;;
4986;SDS011;12674;51.500;7.552;2022-10-16T05:45:58;3.47;;;1.03;;
4986;SDS011;12674;51.500;7.552;2022-10-16T05:48:02;5.20;;;1.20;;
4986;SDS011;12674;51.500;7.552;2022-10-16T05:50:05;5.40;;;0.93;;
4986;SDS011;12674;51.500;7.552;2022-10-16T05:52:10;1.70;;;0.93;;
4986;SDS011;12674;51.500;7.552;2022-10-16T05:54:15;1.57;;;0.90;;
4986;SDS011;12674;51.500;7.552;2022-10-16T05:56:18;5.20;;;1.03;;
4986;SDS011;12674;51.500;7.552;2022-10-16T05:58:21;7.53;;;1.20;;
4986;SDS011;12674;51.500;7.552;2022-10-16T06:00:24;11.33;;;1.10;;
4986;SDS011;12674;51.500;7.552;2022-10-16T06:02:27;1.97;;;0.80;;
4986;SDS011;12674;51.500;7.552;2022-10-16T06:04:30;1.90;;;0.90;;
4986;SDS011;12674;51.500;7.552;2022-10-16T06:06:33;1.17;;;0.80;;
4986;SDS011;12674;51.500;7.552;2022-10-16T06:08:39;2.90;;;0.90;;
4986;SDS011;12674;51.500;7.552;2022-10-16T06:10:42;1.60;;;1.17;;
4986;SDS011;12674;51.500;7.552;2022-10-16T06:12:46;2.30;;;0.83;;
4986;SDS011;12674;51.500;7.552;2022-10-16T06:14:49;3.77;;;1.00;;
4986;SDS011;12674;51.500;7.552;2022-10-16T06:16:52;11.90;;;1.20;;
4986;SDS011;12674;51.500;7.552;2022-10-16T06:18:55;4.43;;;0.97;;
4986;SDS011;12674;51.500;7.552;2022-10-16T06:21:06;1.83;;;0.83;;
4986;SDS011;12674;51.500;7.552;2022-10-16T06:23:12;2.43;;;0.90;;
4986;SDS011;12674;51.500;7.552;2022-10-16T06:25:16;1.57;;;1.10;;
4986;SDS011;12674;51.500;7.552;2022-10-16T06:27:19;1.77;;;0.93;;
4986;SDS011;12674;51.500;7.552;2022-10-16T06:29:22;3.93;;;1.00;;
4986;SDS011;12674;51.500;7.552;2022-10-16T06:31:25;1.10;;;0.80;;
4986;SDS011;12674;51.500;7.552;2022-10-16T06:33:30;2.27;;;1.13;;
4986;SDS011;12674;51.500;7.552;2022-10-16T06:35:33;4.23;;;1.37;;
4986;SDS011;12674;51.500;7.552;2022-10-16T06:37:36;1.93;;;1.20;;
4986;SDS011;12674;51.500;7.552;2022-10-16T06:39:39;0.93;;;0.60;;
4986;SDS011;12674;51.500;7.552;2022-10-16T06:41:44;2.77;;;0.80;;
4986;SDS011;12674;51.500;7.552;2022-10-16T06:43:50;1.17;;;0.80;;
4986;SDS011;12674;51.500;7.552;2022-10-16T06:45:53;1.60;;;1.20;;
4986;SDS011;12674;51.500;7.552;2022-10-16T06:47:57;4.03;;;1.17;;
4986;SDS011;12674;51.500;7.552;2022-10-16T06:50:00;4.13;;;1.20;;
4986;SDS011;12674;51.500;7.552;2022-10-16T06:52:03;2.38;;;1.10;;
4986;SDS011;12674;51.500;7.552;2022-10-16T06:54:06;7.00;;;0.80;;
4986;SDS011;12674;51.500;7.552;2022-10-16T06:56:10;1.13;;;0.80;;
4986;SDS011;12674;51.500;7.552;2022-10-16T06:58:15;2.97;;;0.90;;
4986;SDS011;12674;51.500;7.552;2022-10-16T07:00:17;2.92;;;0.88;;
4986;SDS011;12674;51.500;7.552;2022-10-16T07:02:20;4.13;;;1.00;;
4986;SDS011;12674;51.500;7.552;2022-10-16T07:04:24;5.18;;;1.00;;
4986;SDS011;12674;51.500;7.552;2022-10-16T07:06:29;1.60;;;0.95;;
4986;SDS011;12674;51.500;7.552;2022-10-16T07:08:34;2.25;;;0.88;;
4986;SDS011;12674;51.500;7.552;2022-10-16T07:10:37;0.98;;;0.88;;
4986;SDS011;12674;51.500;7.552;2022-10-16T07:12:40;2.90;;;0.98;;
4986;SDS011;12674;51.500;7.552;2022-10-16T07:14:44;4.32;;;1.08;;
4986;SDS011;12674;51.500;7.552;2022-10-16T07:16:48;0.80;;;0.80;;
4986;SDS011;12674;51.500;7.552;2022-10-16T07:18:51;5.50;;;0.80;;
4986;SDS011;12674;51.500;7.552;2022-10-16T07:21:02;2.97;;;1.20;;
4986;SDS011;12674;51.500;7.552;2022-10-16T07:23:06;1.05;;;1.05;;
4986;SDS011;12674;51.500;7.552;2022-10-16T07:25:09;3.40;;;1.10;;
4986;SDS011;12674;51.500;7.552;2022-10-16T07:27:12;2.03;;;1.10;;
4986;SDS011;12674;51.500;7.552;2022-10-16T07:29:17;3.15;;;1.13;;
4986;SDS011;12674;51.500;7.552;2022-10-16T07:31:23;5.93;;;1.20;;
4986;SDS011;12674;51.500;7.552;2022-10-16T07:33:26;4.43;;;0.80;;
4986;SDS011;12674;51.500;7.552;2022-10-16T07:35:29;4.10;;;1.15;;
4986;SDS011;12674;51.500;7.552;2022-10-16T07:37:32;1.95;;;1.00;;
4986;SDS011;12674;51.500;7.552;2022-10-16T07:39:35;1.42;;;0.90;;
4986;SDS011;12674;51.500;7.552;2022-10-16T07:41:38;1.48;;;0.93;;
4986;SDS011;12674;51.500;7.552;2022-10-16T07:43:45;4.47;;;0.90;;
4986;SDS011;12674;51.500;7.552;2022-10-16T07:45:49;4.95;;;1.20;;
4986;SDS011;12674;51.500;7.552;2022-10-16T07:47:58;5.57;;;1.33;;
4986;SDS011;12674;51.500;7.552;2022-10-16T07:50:01;1.27;;;1.10;;
4986;SDS011;12674;51.500;7.552;2022-10-16T07:52:07;2.80;;;0.80;;
4986;SDS011;12674;51.500;7.552;2022-10-16T07:54:10;1.25;;;0.90;;
4986;SDS011;12674;51.500;7.552;2022-10-16T07:56:13;1.58;;;0.95;;
4986;SDS011;12674;51.500;7.552;2022-10-16T07:58:17;2.13;;;1.27;;
4986;SDS011;12674;51.500;7.552;2022-10-16T08:00:20;1.05;;;0.90;;
4986;SDS011;12674;51.500;7.552;2022-10-16T08:02:23;2.58;;;1.23;;
4986;SDS011;12674;51.500;7.552;2022-10-16T08:04:27;1.73;;;1.08;;
4986;SDS011;12674;51.500;7.552;2022-10-16T08:06:34;7.97;;;1.00;;
4986;SDS011;12674;51.500;7.552;2022-10-16T08:08:37;2.58;;;1.15;;
4986;SDS011;12674;51.500;7.552;2022-10-16T08:10:40;7.32;;;1.23;;
4986;SDS011;12674;51.500;7.552;2022-10-16T08:12:44;0.80;;;0.80;;
4986;SDS011;12674;51.500;7.552;2022-10-16T08:14:46;1.95;;;1.17;;
4986;SDS011;12674;51.500;7.552;2022-10-16T08:16:49;1.27;;;1.05;;
4986;SDS011;12674;51.500;7.552;2022-10-16T08:18:53;2.47;;;0.95;;
4986;SDS011;12674;51.500;7.552;2022-10-16T08:20:57;2.05;;;1.10;;
4986;SDS011;12674;51.500;7.552;2022-10-16T08:23:01;2.15;;;0.82;;
4986;SDS011;12674;51.500;7.552;2022-10-16T08:25:05;3.08;;;1.10;;
4986;SDS011;12674;51.500;7.552;2022-10-16T08:27:08;1.90;;;0.93;;
4986;SDS011;12674;51.500;7.552;2022-10-16T08:29:12;1.77;;;0.88;;
4986;SDS011;12674;51.500;7.552;2022-10-16T08:31:16;3.17;;;1.10;;
4986;SDS011;12674;51.500;7.552;2022-10-16T08:33:19;2.47;;;1.20;;
4986;SDS011;12674;51.500;7.552;2022-10-16T08:35:22;1.50;;;1.08;;
4986;SDS011;12674;51.500;7.552;2022-10-16T08:37:30;2.35;;;1.08;;
4986;SDS011;12674;51.500;7.552;2022-10-16T08:39:33;3.97;;;1.05;;
4986;SDS011;12674;51.500;7.552;2022-10-16T08:41:51;2.63;;;0.95;;
4986;SDS011;12674;51.500;7.552;2022-10-16T08:44:24;1.63;;;1.00;;
4986;SDS011;12674;51.500;7.552;2022-10-16T08:46:36;3.13;;;1.17;;
4986;SDS011;12674;51.500;7.552;2022-10-16T08:48:51;5.18;;;0.80;;
4986;SDS011;12674;51.500;7.552;2022-10-16T08:50:55;3.33;;;0.88;;
4986;SDS011;12674;51.500;7.552;2022-10-16T08:52:59;3.60;;;1.30;;
4986;SDS011;12674;51.500;7.552;2022-10-16T08:55:03;2.75;;;0.82;;
4986;SDS011;12674;51.500;7.552;2022-10-16T08:57:07;5.07;;;1.23;;
4986;SDS011;12674;51.500;7.552;2022-10-16T08:59:12;0.90;;;0.80;;
4986;SDS011;12674;51.500;7.552;2022-10-16T09:01:17;2.25;;;0.93;;
4986;SDS011;12674;51.500;7.552;2022-10-16T09:03:28;6.13;;;1.05;;
4986;SDS011;12674;51.500;7.552;2022-10-16T09:05:56;4.60;;;1.52;;
4986;SDS011;12674;51.500;7.552;2022-10-16T09:08:08;2.25;;;1.00;;
4986;SDS011;12674;51.500;7.552;2022-10-16T09:10:17;1.63;;;1.00;;
4986;SDS011;12674;51.500;7.552;2022-10-16T09:12:32;4.90;;;1.00;;
4986;SDS011;12674;51.500;7.552;2022-10-16T09:14:45;3.92;;;0.80;;
4986;SDS011;12674;51.500;7.552;2022-10-16T09:16:55;1.35;;;0.90;;
4986;SDS011;12674;51.500;7.552;2022-10-16T09:19:03;1.75;;;0.80;;
4986;SDS011;12674;51.500;7.552;2022-10-16T09:21:15;1.20;;;0.80;;
4986;SDS011;12674;51.500;7.552;2022-10-16T09:23:25;11.45;;;1.00;;
4986;SDS011;12674;51.500;7.552;2022-10-16T09:25:28;9.13;;;1.38;;
4986;SDS011;12674;51.500;7.552;2022-10-16T09:27:32;4.63;;;0.90;;
4986;SDS011;12674;51.500;7.552;2022-10-16T09:29:35;5.45;;;1.25;;
4986;SDS011;12674;51.500;7.552;2022-10-16T09:31:38;1.65;;;0.80;;
4986;SDS011;12674;51.500;7.552;2022-10-16T09:33:42;3.20;;;0.75;;
4986;SDS011;12674;51.500;7.552;2022-10-16T09:35:47;1.92;;;0.80;;
4986;SDS011;12674;51.500;7.552;2022-10-16T09:37:53;3.33;;;0.80;;
4986;SDS011;12674;51.500;7.552;2022-10-16T09:39:58;6.25;;;2.78;;
4986;SDS011;12674;51.500;7.552;2022-10-16T09:42:09;4.25;;;1.30;;
4986;SDS011;12674;51.500;7.552;2022-10-16T09:44:16;1.83;;;0.80;;
4986;SDS011;12674;51.500;7.552;2022-10-16T09:46:25;1.00;;;0.82;;
4986;SDS011;12674;51.500;7.552;2022-10-16T09:48:31;1.98;;;0.85;;
4986;SDS011;12674;51.500;7.552;2022-10-16T09:50:36;2.67;;;1.00;;
4986;SDS011;12674;51.500;7.552;2022-10-16T09:52:39;1.05;;;0.75;;
4986;SDS011;12674;51.500;7.552;2022-10-16T09:54:48;5.70;;;1.08;;
4986;SDS011;12674;51.500;7.552;2022-10-16T09:57:03;4.00;;;1.05;;
4986;SDS011;12674;51.500;7.552;2022-10-16T09:59:08;2.58;;;0.80;;
4986;SDS011;12674;51.500;7.552;2022-10-16T10:01:14;7.00;;;1.20;;
4986;SDS011;12674;51.500;7.552;2022-10-16T10:03:24;1.50;;;0.73;;
4986;SDS011;12674;51.500;7.552;2022-10-16T10:05:36;4.47;;;1.27;;
4986;SDS011;12674;51.500;7.552;2022-10-16T10:07:42;5.72;;;1.02;;
4986;SDS011;12674;51.500;7.552;2022-10-16T10:09:47;3.47;;;1.25;;
4986;SDS011;12674;51.500;7.552;2022-10-16T10:11:51;2.58;;;0.80;;
4986;SDS011;12674;51.500;7.552;2022-10-16T10:14:03;2.13;;;0.80;;
4986;SDS011;12674;51.500;7.552;2022-10-16T10:16:08;3.45;;;1.23;;
4986;SDS011;12674;51.500;7.552;2022-10-16T10:18:15;2.45;;;1.08;;
4986;SDS011;12674;51.500;7.552;2022-10-16T10:20:22;2.20;;;1.00;;
4986;SDS011;12674;51.500;7.552;2022-10-16T10:22:30;4.35;;;1.02;;
4986;SDS011;12674;51.500;7.552;2022-10-16T10:24:34;3.78;;;1.15;;
4986;SDS011;12674;51.500;7.552;2022-10-16T10:26:37;6.18;;;1.20;;
4986;SDS011;12674;51.500;7.552;2022-10-16T10:28:49;2.95;;;1.10;;
4986;SDS011;12674;51.500;7.552;2022-10-16T10:30:57;4.88;;;1.30;;
4986;SDS011;12674;51.500;7.552;2022-10-16T10:33:10;3.70;;;1.23;;
4986;SDS011;12674;51.500;7.552;2022-10-16T10:35:18;3.35;;;0.80;;
4986;SDS011;12674;51.500;7.552;2022-10-16T10:37:30;5.18;;;1.17;;
4986;SDS011;12674;51.500;7.552;2022-10-16T10:39:40;3.97;;;1.48;;
4986;SDS011;12674;51.500;7.552;2022-10-16T10:42:09;4.10;;;1.13;;
4986;SDS011;12674;51.500;7.552;2022-10-16T10:44:21;10.88;;;1.02;;
4986;SDS011;12674;51.500;7.552;2022-10-16T10:46:34;3.25;;;1.30;;
4986;SDS011;12674;51.500;7.552;2022-10-16T10:48:58;9.35;;;1.10;;
4986;SDS011;12674;51.500;7.552;2022-10-16T10:51:09;4.88;;;1.17;;
4986;SDS011;12674;51.500;7.552;2022-10-16T10:53:24;4.07;;;1.00;;
4986;SDS011;12674;51.500;7.552;2022-10-16T10:55:37;5.05;;;1.10;;
4986;SDS011;12674;51.500;7.552;2022-10-16T10:57:44;3.35;;;1.35;;
4986;SDS011;12674;51.500;7.552;2022-10-16T11:00:05;2.70;;;1.10;;
4986;SDS011;12674;51.500;7.552;2022-10-16T11:02:18;2.17;;;0.80;;
4986;SDS011;12674;51.500;7.552;2022-10-16T11:04:33;6.65;;;1.40;;
4986;SDS011;12674;51.500;7.552;2022-10-16T11:06:45;5.07;;;1.02;;
4986;SDS011;12674;51.500;7.552;2022-10-16T11:08:50;3.28;;;1.65;;
4986;SDS011;12674;51.500;7.552;2022-10-16T11:11:02;13.45;;;1.33;;
4986;SDS011;12674;51.500;7.552;2022-10-16T11:13:09;7.57;;;0.90;;
4986;SDS011;12674;51.500;7.552;2022-10-16T11:15:20;3.60;;;1.05;;
4986;SDS011;12674;51.500;7.552;2022-10-16T11:17:26;2.28;;;0.95;;
4986;SDS011;12674;51.500;7.552;2022-10-16T11:19:35;1.67;;;0.80;;
4986;SDS011;12674;51.500;7.552;2022-10-16T11:21:43;4.45;;;0.70;;
4986;SDS011;12674;51.500;7.552;2022-10-16T11:23:53;6.72;;;1.45;;
4986;SDS011;12674;51.500;7.552;2022-10-16T11:26:00;5.22;;;1.15;;
4986;SDS011;12674;51.500;7.552;2022-10-16T11:28:08;2.10;;;1.08;;
4986;SDS011;12674;51.500;7.552;2022-10-16T11:30:15;5.53;;;1.13;;
4986;SDS011;12674;51.500;7.552;2022-10-16T11:32:22;2.67;;;0.90;;
4986;SDS011;12674;51.500;7.552;2022-10-16T11:34:28;2.85;;;0.90;;
4986;SDS011;12674;51.500;7.552;2022-10-16T11:36:38;3.13;;;0.82;;
4986;SDS011;12674;51.500;7.552;2022-10-16T11:38:44;4.38;;;1.00;;
4986;SDS011;12674;51.500;7.552;2022-10-16T11:40:53;11.98;;;1.17;;
4986;SDS011;12674;51.500;7.552;2022-10-16T11:43:04;2.13;;;1.10;;
4986;SDS011;12674;51.500;7.552;2022-10-16T11:45:14;6.53;;;1.60;;
4986;SDS011;12674;51.500;7.552;2022-10-16T11:47:27;2.40;;;1.30;;
4986;SDS011;12674;51.500;7.552;2022-10-16T11:49:57;2.47;;;1.00;;
4986;SDS011;12674;51.500;7.552;2022-10-16T11:52:05;3.90;;;1.05;;
4986;SDS011;12674;51.500;7.552;2022-10-16T11:54:14;1.88;;;0.80;;
4986;SDS011;12674;51.500;7.552;2022-10-16T11:56:23;1.77;;;0.73;;
4986;SDS011;12674;51.500;7.552;2022-10-16T11:58:28;3.80;;;0.98;;
4986;SDS011;12674;51.500;7.552;2022-10-16T12:00:37;1.42;;;0.93;;
4986;SDS011;12674;51.500;7.552;2022-10-16T12:02:48;2.35;;;0.90;;
4986;SDS011;12674;51.500;7.552;2022-10-16T12:04:56;2.30;;;0.70;;
4986;SDS011;12674;51.500;7.552;2022-10-16T12:07:11;3.45;;;1.00;;
4986;SDS011;12674;51.500;7.552;2022-10-16T12:09:20;3.10;;;0.93;;
4986;SDS011;12674;51.500;7.552;2022-10-16T12:11:34;2.83;;;1.10;;
4986;SDS011;12674;51.500;7.552;2022-10-16T12:13:39;5.43;;;0.95;;
4986;SDS011;12674;51.500;7.552;2022-10-16T12:15:43;2.88;;;0.93;;
4986;SDS011;12674;51.500;7.552;2022-10-16T12:18:02;1.63;;;0.70;;
4986;SDS011;12674;51.500;7.552;2022-10-16T12:22:25;2.25;;;0.82;;
4986;SDS011;12674;51.500;7.552;2022-10-16T12:24:34;4.97;;;1.00;;
4986;SDS011;12674;51.500;7.552;2022-10-16T12:26:42;5.18;;;1.00;;
4986;SDS011;12674;51.500;7.552;2022-10-16T12:28:47;5.15;;;1.10;;
4986;SDS011;12674;51.500;7.552;2022-10-16T12:30:53;0.90;;;0.70;;
4986;SDS011;12674;51.500;7.552;2022-10-16T12:32:58;3.25;;;1.20;;
4986;SDS011;12674;51.500;7.552;2022-10-16T12:35:04;1.27;;;0.73;;
4986;SDS011;12674;51.500;7.552;2022-10-16T12:37:10;11.93;;;1.35;;
4986;SDS011;12674;51.500;7.552;2022-10-16T12:39:20;5.00;;;1.58;;
4986;SDS011;12674;51.500;7.552;2022-10-16T12:41:24;4.40;;;0.90;;
4986;SDS011;12674;51.500;7.552;2022-10-16T12:43:36;1.40;;;0.70;;
4986;SDS011;12674;51.500;7.552;2022-10-16T12:45:41;1.00;;;0.70;;
4986;SDS011;12674;51.500;7.552;2022-10-16T12:47:48;1.65;;;0.82;;
4986;SDS011;12674;51.500;7.552;2022-10-16T12:49:53;2.78;;;0.95;;
4986;SDS011;12674;51.500;7.552;2022-10-16T12:52:00;2.13;;;0.80;;